Terminal Aerodrome Forecast
Issued by NWS

Home | Current Version | Previous Version | Text Only | Print | Product List | Glossary Off
Versions: 1 2 3 4 5 6 7 8 9 10 11 12 13 14 15 16

000
FTUS45 KGGW 181120
TAFSDY
TAF
KSDY 181120Z 1812/1912 19004KT P6SM SCT150
     FM181400 05004KT P6SM BKN130
     FM181800 06007KT P6SM BKN060
     FM190100 06007KT P6SM BKN020
     FM190800 07005KT P6SM BKN010=

USA.gov is the U.S. government's official web portal to all federal, state and local government web resources and services.